createdAt,value
2019-05-11T03:00:59.457Z,10.60
2019-05-11T03:03:28.064Z,10.60
2019-05-11T03:05:56.973Z,10.60
2019-05-11T03:08:25.918Z,10.60
2019-05-11T03:10:54.478Z,10.50
2019-05-11T03:13:23.416Z,10.40
2019-05-11T03:15:52.053Z,10.40
2019-05-11T03:18:20.647Z,10.50
2019-05-11T03:20:49.209Z,10.50
2019-05-11T03:23:17.771Z,10.50
2019-05-11T03:25:46.351Z,10.60
2019-05-11T03:28:14.956Z,10.60
2019-05-11T03:30:43.539Z,10.60
2019-05-11T03:33:12.112Z,10.50
2019-05-11T03:35:40.953Z,10.50
2019-05-11T03:38:09.523Z,10.50
2019-05-11T03:40:38.091Z,10.50
2019-05-11T03:43:06.697Z,10.50
2019-05-11T03:45:35.243Z,10.50
2019-05-11T03:48:03.815Z,10.60
2019-05-11T03:50:32.458Z,10.60
2019-05-11T03:53:01.051Z,10.60
2019-05-11T03:55:29.643Z,10.60
2019-05-11T03:57:58.225Z,10.60
2019-05-11T04:00:26.798Z,10.60
2019-05-11T04:02:55.396Z,10.70
2019-05-11T04:05:24.248Z,10.70
2019-05-11T04:07:52.850Z,10.60
2019-05-11T04:10:25.112Z,10.70
2019-05-11T04:12:51.710Z,10.60
2019-05-11T04:15:20.300Z,10.60
2019-05-11T04:17:48.868Z,10.60
2019-05-11T04:20:17.465Z,10.50
2019-05-11T04:22:46.014Z,10.50
2019-05-11T04:25:14.578Z,10.60
2019-05-11T04:27:43.191Z,10.60
2019-05-11T04:30:11.768Z,10.60
2019-05-11T04:32:40.366Z,10.60
2019-05-11T04:35:08.944Z,10.60
2019-05-11T04:37:37.507Z,10.50
2019-05-11T04:40:06.140Z,10.60
2019-05-11T04:42:53.188Z,10.60
2019-05-11T04:45:06.175Z,10.50
2019-05-11T04:47:34.739Z,10.60
2019-05-11T04:50:03.380Z,10.60
2019-05-11T04:52:31.964Z,10.80
2019-05-11T04:55:00.548Z,10.80
2019-05-11T04:57:29.142Z,10.80
2019-05-11T04:59:57.802Z,10.80
2019-05-11T05:02:27.339Z,10.80
2019-05-11T05:04:56.306Z,10.80
2019-05-11T05:07:25.003Z,10.80
2019-05-11T05:09:53.595Z,10.70
2019-05-11T05:12:22.171Z,10.70
2019-05-11T05:14:51.374Z,10.70
2019-05-11T05:17:19.954Z,10.70
2019-05-11T05:19:48.524Z,10.60
2019-05-11T05:22:17.159Z,10.70
2019-05-11T05:24:45.727Z,10.80
2019-05-11T05:27:14.665Z,10.70
2019-05-11T05:29:43.778Z,10.80
2019-05-11T05:32:12.351Z,10.80
2019-05-11T05:34:41.864Z,10.80
2019-05-11T05:37:10.780Z,10.80
2019-05-11T05:39:39.742Z,10.90
2019-05-11T05:42:08.331Z,10.90
2019-05-11T05:44:37.218Z,10.90
2019-05-11T05:47:05.791Z,10.90
2019-05-11T05:49:34.387Z,10.90
2019-05-11T05:52:03.018Z,10.90
2019-05-11T05:54:31.604Z,11.00
2019-05-11T05:57:00.222Z,11.10
2019-05-11T05:59:29.095Z,11.10
2019-05-11T06:01:57.662Z,11.10
2019-05-11T06:04:26.340Z,11.10
2019-05-11T06:06:54.904Z,11.20
2019-05-11T06:09:23.490Z,11.30
2019-05-11T06:11:52.163Z,11.20
2019-05-11T06:14:21.019Z,11.30
2019-05-11T06:16:49.579Z,11.30
2019-05-11T06:19:18.180Z,11.30
2019-05-11T06:21:46.734Z,11.30
2019-05-11T06:24:15.322Z,11.30
2019-05-11T06:26:43.918Z,11.40
2019-05-11T06:29:12.808Z,11.50
2019-05-11T06:31:41.399Z,11.60
2019-05-11T06:34:09.991Z,11.70
2019-05-11T06:36:38.559Z,11.90
2019-05-11T06:39:08.268Z,12.10
2019-05-11T06:41:37.094Z,12.30
2019-05-11T06:44:05.898Z,12.50
2019-05-11T06:46:35.182Z,12.70
2019-05-11T06:49:03.954Z,12.70
2019-05-11T06:51:32.518Z,12.90
2019-05-11T06:54:01.079Z,12.90
2019-05-11T06:56:29.655Z,13.00
2019-05-11T06:58:58.250Z,13.10
2019-05-11T07:01:26.819Z,13.10
2019-05-11T07:03:55.394Z,13.20
2019-05-11T07:06:28.244Z,13.30
2019-05-11T07:08:54.242Z,13.40
2019-05-11T07:11:22.839Z,13.40
2019-05-11T07:13:51.402Z,13.50
2019-05-11T07:16:19.959Z,13.50
2019-05-11T07:18:48.539Z,13.60
2019-05-11T07:21:17.410Z,13.70
2019-05-11T07:23:45.984Z,13.80
2019-05-11T07:26:14.651Z,13.80
2019-05-11T07:28:43.215Z,13.80
2019-05-11T07:31:12.112Z,13.90
2019-05-11T07:33:40.687Z,14.00
2019-05-11T07:36:09.582Z,14.20
2019-05-11T07:38:38.304Z,14.30
2019-05-11T07:41:08.750Z,14.30
2019-05-11T07:43:38.027Z,14.20
2019-05-11T07:46:07.793Z,14.20
2019-05-11T07:48:38.746Z,14.20
2019-05-11T07:51:08.898Z,14.10
2019-05-11T07:53:38.118Z,14.10
2019-05-11T07:56:08.241Z,14.20
2019-05-11T07:58:38.719Z,14.30
2019-05-11T08:01:08.712Z,14.30
2019-05-11T08:03:38.867Z,14.30
2019-05-11T08:06:08.874Z,14.30
2019-05-11T08:08:38.409Z,14.40
2019-05-11T08:11:08.237Z,14.40
2019-05-11T08:13:38.848Z,14.50
2019-05-11T08:16:08.260Z,14.40
2019-05-11T08:18:38.717Z,14.50
2019-05-11T08:21:08.867Z,14.60
2019-05-11T08:23:37.859Z,15.00
2019-05-11T08:26:08.417Z,15.50
2019-05-11T08:28:38.095Z,16.30
2019-05-11T08:31:08.071Z,17.00
2019-05-11T08:33:38.877Z,17.20
2019-05-11T08:36:08.352Z,17.90
2019-05-11T08:38:37.809Z,18.20
2019-05-11T08:41:08.133Z,18.10
2019-05-11T08:43:38.815Z,17.60
2019-05-11T08:46:08.106Z,17.50
2019-05-11T08:48:38.799Z,18.20
2019-05-11T08:51:08.391Z,18.80
2019-05-11T08:53:38.697Z,19.10
2019-05-11T08:56:11.136Z,19.00
2019-05-11T08:58:38.092Z,18.70
2019-05-11T09:01:08.871Z,18.50
2019-05-11T09:03:38.693Z,18.30
2019-05-11T09:06:08.412Z,18.20
2019-05-11T09:08:38.779Z,18.40
2019-05-11T09:11:08.402Z,18.80
2019-05-11T09:13:39.242Z,18.30
2019-05-11T09:16:08.017Z,18.70
2019-05-11T09:18:38.587Z,18.80
2019-05-11T09:21:08.341Z,19.10
2019-05-11T09:23:39.946Z,19.60
2019-05-11T09:26:08.759Z,19.60
2019-05-11T09:28:38.520Z,19.20
2019-05-11T09:31:08.519Z,19.00
2019-05-11T09:33:38.550Z,19.10
2019-05-11T09:36:08.603Z,19.80
2019-05-11T09:38:38.400Z,20.10
2019-05-11T09:41:08.945Z,20.00
2019-05-11T09:43:37.699Z,19.70
2019-05-11T09:46:08.282Z,19.10
2019-05-11T09:48:37.999Z,18.80
2019-05-11T09:51:08.129Z,18.40
2019-05-11T09:53:38.811Z,18.10
2019-05-11T09:56:08.087Z,17.90
2019-05-11T09:58:38.728Z,17.70
2019-05-11T10:01:08.866Z,17.70
2019-05-11T10:03:38.668Z,17.70
2019-05-11T10:06:08.361Z,17.70
2019-05-11T10:08:38.080Z,17.50
2019-05-11T10:11:08.401Z,17.50
2019-05-11T10:13:38.466Z,17.40
2019-05-11T10:16:10.349Z,17.40
2019-05-11T10:18:38.572Z,17.30
2019-05-11T10:21:08.223Z,17.30
2019-05-11T10:23:38.629Z,17.30
2019-05-11T10:26:08.002Z,17.20
2019-05-11T10:28:38.847Z,17.10
2019-05-11T10:31:08.580Z,17.00
2019-05-11T10:33:38.236Z,17.10
2019-05-11T10:36:08.264Z,17.20
2019-05-11T10:38:37.956Z,17.20
2019-05-11T10:41:08.744Z,17.10
2019-05-11T10:43:38.028Z,17.10
2019-05-11T10:46:17.063Z,17.00
2019-05-11T10:48:38.892Z,17.00
2019-05-11T10:51:08.339Z,17.00
2019-05-11T10:53:38.401Z,16.90
2019-05-11T10:56:08.730Z,16.80
2019-05-11T10:58:38.003Z,16.80
2019-05-11T11:01:08.793Z,16.60
2019-05-11T11:03:37.778Z,16.50
2019-05-11T11:06:08.434Z,16.40
2019-05-11T11:08:38.362Z,16.40
2019-05-11T11:11:08.148Z,16.30
2019-05-11T11:13:38.654Z,16.20
2019-05-11T11:16:08.348Z,16.10
2019-05-11T11:18:38.144Z,16.20
2019-05-11T11:21:08.794Z,16.10
2019-05-11T11:23:38.546Z,16.10
2019-05-11T11:26:08.205Z,16.10
2019-05-11T11:28:38.391Z,16.20
2019-05-11T11:31:07.790Z,16.20
2019-05-11T11:33:38.299Z,16.30
2019-05-11T11:36:08.529Z,16.30
2019-05-11T11:38:37.691Z,16.20
2019-05-11T11:41:07.603Z,16.10
2019-05-11T11:43:37.795Z,16.00
2019-05-11T11:46:08.380Z,16.00
2019-05-11T11:48:38.570Z,16.00
2019-05-11T11:51:08.135Z,16.10
2019-05-11T11:53:38.382Z,16.30
2019-05-11T11:56:08.341Z,16.40
2019-05-11T11:58:38.138Z,16.60
2019-05-11T12:01:08.197Z,16.70
2019-05-11T12:03:37.935Z,16.80
2019-05-11T12:06:08.696Z,17.20
2019-05-11T12:08:38.906Z,17.30
2019-05-11T12:11:08.107Z,17.20
2019-05-11T12:13:38.410Z,17.30
2019-05-11T12:16:07.722Z,17.30
2019-05-11T12:18:38.029Z,17.30
2019-05-11T12:21:08.044Z,17.60
2019-05-11T12:23:38.110Z,17.30
2019-05-11T12:26:08.514Z,17.10
2019-05-11T12:28:38.224Z,17.00
2019-05-11T12:31:08.730Z,16.80
2019-05-11T12:33:38.532Z,16.60
2019-05-11T12:36:07.961Z,16.40
2019-05-11T12:38:38.212Z,16.30
2019-05-11T12:41:08.707Z,16.40
2019-05-11T12:43:38.231Z,16.70
2019-05-11T12:46:08.126Z,16.90
2019-05-11T12:48:37.931Z,17.10
2019-05-11T12:51:08.025Z,17.20
2019-05-11T12:53:38.529Z,17.00
2019-05-11T12:56:08.264Z,17.20
2019-05-11T12:58:39.459Z,17.40
2019-05-11T13:01:08.944Z,17.80
2019-05-11T13:03:38.591Z,18.30
2019-05-11T13:06:08.230Z,18.80
2019-05-11T13:08:38.872Z,18.80
2019-05-11T13:11:07.996Z,18.80
2019-05-11T13:13:37.885Z,18.60
2019-05-11T13:16:08.569Z,18.20
2019-05-11T13:18:38.425Z,18.20
2019-05-11T13:21:07.808Z,18.40
2019-05-11T13:23:38.278Z,18.50
2019-05-11T13:26:08.729Z,18.40
2019-05-11T13:28:37.892Z,18.10
2019-05-11T13:31:08.287Z,17.80
2019-05-11T13:33:38.488Z,17.60
2019-05-11T13:36:09.072Z,17.50
2019-05-11T13:38:38.845Z,17.40
2019-05-11T13:41:08.106Z,17.50
2019-05-11T13:43:38.578Z,17.40
2019-05-11T13:46:08.762Z,17.30
2019-05-11T13:48:38.658Z,17.20
2019-05-11T13:51:08.814Z,17.10
2019-05-11T13:53:37.788Z,17.10
2019-05-11T13:56:08.036Z,16.90
2019-05-11T13:58:38.152Z,17.00
2019-05-11T14:01:08.066Z,16.90
2019-05-11T14:03:37.735Z,16.90
2019-05-11T14:06:08.597Z,16.80
2019-05-11T14:08:38.425Z,16.50
2019-05-11T14:11:08.556Z,16.40
2019-05-11T14:13:38.624Z,16.40
2019-05-11T14:16:08.087Z,16.40
2019-05-11T14:18:38.648Z,16.20
2019-05-11T14:21:08.034Z,16.10
2019-05-11T14:23:38.668Z,16.00
2019-05-11T14:26:08.344Z,16.00
2019-05-11T14:28:37.824Z,16.00
2019-05-11T14:31:08.234Z,15.90
2019-05-11T14:33:38.598Z,15.90
2019-05-11T14:36:08.636Z,15.80
2019-05-11T14:38:38.052Z,15.80
2019-05-11T14:41:07.711Z,15.90
2019-05-11T14:43:38.348Z,15.80
2019-05-11T14:46:08.583Z,15.70
2019-05-11T14:48:39.162Z,15.60
2019-05-11T14:51:08.524Z,15.60
2019-05-11T14:53:37.992Z,15.50
2019-05-11T14:56:08.276Z,15.50
2019-05-11T14:58:38.641Z,15.50
2019-05-11T15:01:08.866Z,15.50
2019-05-11T15:03:38.029Z,15.40
2019-05-11T15:06:08.274Z,15.40
2019-05-11T15:08:38.722Z,15.30
2019-05-11T15:11:08.313Z,15.40
2019-05-11T15:13:38.238Z,15.40
2019-05-11T15:16:08.128Z,15.30
2019-05-11T15:18:41.396Z,15.30
2019-05-11T15:21:08.311Z,15.20
2019-05-11T15:23:37.807Z,15.10
2019-05-11T15:26:09.390Z,15.10
2019-05-11T15:28:37.922Z,15.10
2019-05-11T15:31:08.080Z,15.10
2019-05-11T15:33:38.231Z,15.00
2019-05-11T15:36:07.604Z,15.00
2019-05-11T15:38:37.930Z,14.90
2019-05-11T15:41:08.321Z,14.90
2019-05-11T15:43:38.716Z,14.80
2019-05-11T15:46:08.053Z,14.70
2019-05-11T15:48:53.440Z,14.50
2019-05-11T15:51:08.085Z,14.30
2019-05-11T15:53:36.847Z,14.10
2019-05-11T15:56:05.409Z,13.90
2019-05-11T15:58:33.992Z,13.70
2019-05-11T16:01:02.584Z,13.60
2019-05-11T16:03:31.142Z,13.60
2019-05-11T16:06:00.364Z,13.40
2019-05-11T16:08:28.955Z,13.40
2019-05-11T16:10:57.860Z,13.30
2019-05-11T16:13:28.407Z,13.30
2019-05-11T16:15:57.693Z,13.30
2019-05-11T16:18:26.436Z,13.30
2019-05-11T16:20:55.479Z,13.30
2019-05-11T16:23:24.150Z,13.30
2019-05-11T16:25:53.130Z,13.30
2019-05-11T16:28:21.728Z,13.30
2019-05-11T16:30:50.304Z,13.30
2019-05-11T16:33:19.139Z,13.20
2019-05-11T16:35:49.085Z,13.10
2019-05-11T16:38:18.819Z,12.90
2019-05-11T16:40:48.081Z,12.40
2019-05-11T16:43:18.985Z,11.90
2019-05-11T16:45:50.698Z,11.60
2019-05-11T16:48:18.437Z,11.20
2019-05-11T16:50:47.284Z,11.10
2019-05-11T16:53:18.162Z,11.00
2019-05-11T16:55:48.618Z,10.90
2019-05-11T16:58:19.874Z,10.80
2019-05-11T17:00:48.940Z,10.80
2019-05-11T17:03:17.498Z,10.70
2019-05-11T17:05:48.275Z,10.70
2019-05-11T17:08:18.503Z,10.60
2019-05-11T17:10:55.847Z,10.50
2019-05-11T17:13:24.434Z,10.50
2019-05-11T17:15:52.993Z,10.40
2019-05-11T17:18:21.550Z,10.50
2019-05-11T17:20:50.289Z,10.60
2019-05-11T17:23:18.924Z,10.70
2019-05-11T17:25:48.401Z,10.80
2019-05-11T17:28:17.767Z,10.80
2019-05-11T17:30:48.081Z,10.90
2019-05-11T17:33:17.783Z,10.80
2019-05-11T17:35:48.001Z,10.80
2019-05-11T17:38:18.395Z,10.70
2019-05-11T17:40:48.302Z,10.70
2019-05-11T17:43:18.152Z,10.80
2019-05-11T17:45:47.981Z,10.80
2019-05-11T17:48:17.845Z,10.80
2019-05-11T17:50:46.632Z,10.90
2019-05-11T17:53:15.238Z,10.90
2019-05-11T17:55:43.958Z,10.90
2019-05-11T17:58:12.971Z,10.90
2019-05-11T18:00:41.650Z,10.80
2019-05-11T18:03:11.264Z,10.90
2019-05-11T18:05:40.311Z,10.90
2019-05-11T18:08:09.990Z,10.90
2019-05-11T18:10:38.633Z,10.90
2019-05-11T18:13:07.216Z,11.00
2019-05-11T18:15:37.909Z,11.00
2019-05-11T18:18:09.193Z,11.00
2019-05-11T18:20:38.035Z,11.00
2019-05-11T18:23:08.320Z,11.00
2019-05-11T18:25:39.027Z,10.90
2019-05-11T18:28:07.760Z,10.90
2019-05-11T18:30:38.592Z,10.90
2019-05-11T18:33:08.369Z,10.80
2019-05-11T18:35:36.935Z,10.80
2019-05-11T18:38:08.357Z,10.80
2019-05-11T18:40:38.130Z,10.80
2019-05-11T18:43:08.559Z,10.70
2019-05-11T18:45:38.287Z,10.60
2019-05-11T18:48:08.034Z,10.60
2019-05-11T18:50:38.482Z,10.50
2019-05-11T18:53:09.151Z,10.50
2019-05-11T18:55:38.003Z,10.60
2019-05-11T18:58:06.626Z,10.60
2019-05-11T19:00:35.258Z,10.60
2019-05-11T19:03:03.836Z,10.60
2019-05-11T19:05:32.763Z,10.70
2019-05-11T19:08:01.607Z,10.60
2019-05-11T19:10:30.157Z,10.60
2019-05-11T19:12:59.091Z,10.60
2019-05-11T19:15:27.766Z,10.60
2019-05-11T19:17:58.080Z,10.60
2019-05-11T19:20:28.312Z,10.60
2019-05-11T19:22:58.982Z,10.60
2019-05-11T19:25:27.414Z,10.70
2019-05-11T19:27:55.995Z,10.60
2019-05-11T19:30:24.558Z,10.60
2019-05-11T19:32:53.147Z,10.60
2019-05-11T19:35:21.714Z,10.80
2019-05-11T19:37:50.282Z,10.80
2019-05-11T19:40:18.858Z,10.70
2019-05-11T19:42:59.186Z,10.70
2019-05-11T19:45:29.342Z,10.70
2019-05-11T19:47:57.945Z,10.60
2019-05-11T19:50:26.476Z,10.60
2019-05-11T19:52:55.054Z,10.60
2019-05-11T19:55:23.617Z,10.60
2019-05-11T19:57:52.209Z,10.60
2019-05-11T20:00:40.079Z,10.60
2019-05-11T20:03:09.333Z,10.70
2019-05-11T20:05:38.172Z,10.60
2019-05-11T20:08:07.951Z,10.50
2019-05-11T20:10:38.330Z,10.50
2019-05-11T20:13:07.930Z,10.50
2019-05-11T20:15:38.165Z,10.40
2019-05-11T20:18:07.941Z,10.40
2019-05-11T20:20:37.677Z,10.40
2019-05-11T20:23:07.793Z,10.40
2019-05-11T20:25:38.009Z,10.50
2019-05-11T20:28:06.827Z,10.50
2019-05-11T20:30:35.387Z,10.60
2019-05-11T20:33:03.954Z,10.60
2019-05-11T20:35:32.706Z,10.60
2019-05-11T20:38:01.487Z,10.60
2019-05-11T20:40:33.154Z,10.50
2019-05-11T20:43:01.726Z,10.60
2019-05-11T20:45:30.286Z,10.60
2019-05-11T20:47:59.178Z,10.60
2019-05-11T20:50:27.750Z,10.60
2019-05-11T20:52:58.219Z,10.60
2019-05-11T20:55:28.441Z,10.50
2019-05-11T20:57:58.268Z,10.40
2019-05-11T21:00:27.972Z,10.40
2019-05-11T21:02:58.594Z,10.20
2019-05-11T21:05:26.942Z,10.20
2019-05-11T21:07:57.764Z,10.20
2019-05-11T21:10:28.146Z,10.10
2019-05-11T21:12:57.694Z,10.10
2019-05-11T21:15:28.212Z,10.10
2019-05-11T21:17:58.559Z,10.10
2019-05-11T21:20:28.726Z,10.10
2019-05-11T21:22:58.052Z,10.10
2019-05-11T21:25:28.654Z,10.20
2019-05-11T21:27:57.917Z,10.20
2019-05-11T21:30:26.693Z,10.30
2019-05-11T21:32:55.552Z,10.30
2019-05-11T21:35:24.117Z,10.30
2019-05-11T21:37:52.695Z,10.30
2019-05-11T21:40:21.266Z,10.30
2019-05-11T21:42:49.844Z,10.40
2019-05-11T21:45:18.574Z,10.40
2019-05-11T21:47:48.980Z,10.40
2019-05-11T21:50:19.046Z,10.40
2019-05-11T21:52:48.467Z,10.40
2019-05-11T21:55:17.156Z,10.40
2019-05-11T21:57:49.494Z,10.40
2019-05-11T23:22:57.928Z,10.00
2019-05-11T23:25:19.789Z,10.00
2019-05-11T23:27:48.831Z,10.00
2019-05-11T23:30:19.803Z,10.10
2019-05-11T23:32:49.166Z,10.10
2019-05-11T23:35:18.901Z,10.00
2019-05-11T23:37:49.380Z,10.00
2019-05-11T23:40:18.504Z,10.00
2019-05-11T23:42:49.056Z,10.00
2019-05-11T23:45:18.854Z,9.90
2019-05-11T23:47:49.035Z,9.90
2019-05-11T23:50:18.873Z,9.90
2019-05-11T23:52:50.159Z,9.80
2019-05-11T23:55:19.113Z,9.70
2019-05-11T23:57:48.684Z,9.70
